createdAt,value
2018-08-30T00:00:00.367Z,98369.39
2018-08-30T00:02:12.580Z,98375.63
2018-08-30T00:04:24.811Z,98384.37
2018-08-30T00:06:37.027Z,98387.18
2018-08-30T00:08:49.235Z,98382.20
2018-08-30T00:11:01.437Z,98383.67
2018-08-30T00:13:13.659Z,98388.61
2018-08-30T00:15:25.829Z,98383.99
2018-08-30T00:17:38.052Z,98391.07
2018-08-30T00:19:50.239Z,98377.45
2018-08-30T00:22:02.458Z,98384.84
2018-08-30T00:24:14.639Z,98386.64
2018-08-30T00:26:26.875Z,98392.05
2018-08-30T00:28:39.068Z,98395.98
2018-08-30T00:30:51.272Z,98395.30
2018-08-30T00:33:03.536Z,98396.26
2018-08-30T00:35:15.714Z,98402.53
2018-08-30T00:37:27.911Z,98404.15
2018-08-30T00:39:40.130Z,98404.11
2018-08-30T00:41:52.313Z,98406.92
2018-08-30T00:44:04.522Z,98411.34
2018-08-30T00:46:16.739Z,98419.76
2018-08-30T00:48:28.941Z,98414.45
2018-08-30T00:50:41.123Z,98410.75
2018-08-30T00:52:53.295Z,98419.45
2018-08-30T00:55:05.502Z,98420.08
2018-08-30T00:57:18.102Z,98421.89
2018-08-30T00:59:30.301Z,98430.31
2018-08-30T01:01:42.495Z,98423.70
2018-08-30T01:03:54.726Z,98426.22
2018-08-30T01:06:06.975Z,98437.40
2018-08-30T01:08:19.163Z,98435.22
2018-08-30T01:10:31.370Z,98440.83
2018-08-30T01:12:49.103Z,98442.14
2018-08-30T01:15:01.322Z,98441.45
2018-08-30T01:17:13.521Z,98440.83
2018-08-30T01:19:25.839Z,98442.97
2018-08-30T01:21:38.028Z,98447.27
2018-08-30T01:23:50.227Z,98447.75
2018-08-30T01:26:02.482Z,98453.33
2018-08-30T01:28:14.646Z,98455.00
2018-08-30T01:30:26.839Z,98459.88
2018-08-30T01:32:39.024Z,98466.14
2018-08-30T01:34:51.204Z,98466.14
2018-08-30T01:37:03.411Z,98471.42
2018-08-30T01:39:15.554Z,98475.71
2018-08-30T01:41:27.751Z,98485.36
2018-08-30T01:43:39.957Z,98483.45
2018-08-30T01:45:52.163Z,98481.31
2018-08-30T01:48:04.388Z,98484.73
2018-08-30T01:50:16.557Z,98485.06
2018-08-30T01:52:28.796Z,98487.66
2018-08-30T01:54:41.133Z,98487.50
2018-08-30T01:56:53.286Z,98492.11
2018-08-30T01:59:05.497Z,98493.76
2018-08-30T02:01:17.727Z,98498.70
2018-08-30T02:03:29.932Z,98500.34
2018-08-30T02:05:42.122Z,98503.64
2018-08-30T02:07:54.358Z,98509.33
2018-08-30T02:10:06.619Z,98507.28
2018-08-30T02:12:18.822Z,98514.57
2018-08-30T02:14:31.011Z,98515.66
2018-08-30T02:16:43.191Z,98513.79
2018-08-30T02:18:55.417Z,98523.79
2018-08-30T02:21:07.616Z,98516.34
2018-08-30T02:23:19.801Z,98520.45
2018-08-30T02:25:32.007Z,98519.56
2018-08-30T02:27:44.230Z,98511.94
2018-08-30T02:29:56.430Z,98521.87
2018-08-30T02:32:08.666Z,98526.17
2018-08-30T02:34:20.871Z,98530.77
2018-08-30T02:36:33.065Z,98521.82
2018-08-30T02:38:45.264Z,98531.98
2018-08-30T02:40:57.478Z,98537.75
2018-08-30T02:43:09.666Z,98535.27
2018-08-30T02:45:21.882Z,98533.91
2018-08-30T02:47:34.065Z,98545.36
2018-08-30T02:49:46.258Z,98541.61
2018-08-30T02:51:58.464Z,98547.48
2018-08-30T02:54:10.683Z,98544.22
2018-08-30T02:56:22.867Z,98538.21
2018-08-30T02:58:35.045Z,98538.33
2018-08-30T03:00:47.288Z,98534.05
2018-08-30T03:02:59.437Z,98534.05
2018-08-30T03:05:11.788Z,98539.58
2018-08-30T03:07:23.962Z,98539.16
2018-08-30T03:09:36.203Z,98533.14
2018-08-30T03:11:48.401Z,98537.99
2018-08-30T03:14:00.631Z,98544.09
2018-08-30T03:16:12.817Z,98540.06
2018-08-30T03:18:25.030Z,98532.29
2018-08-30T03:20:37.201Z,98539.36
2018-08-30T03:22:49.414Z,98538.87
2018-08-30T03:25:01.923Z,98535.56
2018-08-30T03:27:14.107Z,98534.02
2018-08-30T03:29:26.287Z,98534.51
2018-08-30T03:31:38.490Z,98535.41
2018-08-30T03:33:50.664Z,98532.78
2018-08-30T03:36:02.830Z,98532.03
2018-08-30T03:38:15.129Z,98535.83
2018-08-30T03:40:27.274Z,98529.73
2018-08-30T03:42:39.495Z,98533.05
2018-08-30T03:44:51.677Z,98533.95
2018-08-30T03:47:03.980Z,98536.73
2018-08-30T03:49:16.134Z,98549.44
2018-08-30T03:51:28.322Z,98549.22
2018-08-30T03:53:40.502Z,98552.00
2018-08-30T03:55:52.692Z,98555.68
2018-08-30T03:58:04.963Z,98552.15
2018-08-30T04:00:17.168Z,98558.16
2018-08-30T04:02:29.357Z,98563.23
2018-08-30T04:04:41.649Z,98562.97
2018-08-30T04:06:53.830Z,98564.92
2018-08-30T04:09:07.155Z,98569.59
2018-08-30T04:11:19.327Z,98567.25
2018-08-30T04:13:31.571Z,98571.80
2018-08-30T04:15:43.760Z,98569.51
2018-08-30T04:17:55.991Z,98567.52
2018-08-30T04:20:08.188Z,98570.89
2018-08-30T04:22:20.378Z,98575.89
2018-08-30T04:24:32.575Z,98577.55
2018-08-30T04:26:44.783Z,98577.55
2018-08-30T04:28:56.955Z,98582.47
2018-08-30T04:31:09.176Z,98578.03
2018-08-30T04:33:21.331Z,98580.50
2018-08-30T04:35:33.583Z,98584.52
2018-08-30T04:37:45.795Z,98582.79
2018-08-30T04:39:57.996Z,98582.50
2018-08-30T04:42:10.215Z,98579.19
2018-08-30T04:44:22.418Z,98584.36
2018-08-30T04:46:34.646Z,98589.16
2018-08-30T04:48:46.910Z,98587.16
2018-08-30T04:50:59.207Z,98589.53
2018-08-30T04:53:11.428Z,98590.94
2018-08-30T04:55:23.611Z,98592.59
2018-08-30T04:57:35.795Z,98593.42
2018-08-30T04:59:47.982Z,98601.45
2018-08-30T05:02:00.228Z,98593.94
2018-08-30T05:04:12.520Z,98594.08
2018-08-30T05:06:24.678Z,98591.19
2018-08-30T05:08:36.969Z,98594.50
2018-08-30T05:10:49.238Z,98590.30
2018-08-30T05:13:01.446Z,98590.94
2018-08-30T05:15:13.643Z,98605.59
2018-08-30T05:17:25.851Z,98606.97
2018-08-30T05:19:38.064Z,98611.97
2018-08-30T05:21:50.276Z,98614.80
2018-08-30T05:24:02.518Z,98615.34
2018-08-30T05:26:14.728Z,98618.45
2018-08-30T05:28:26.959Z,98619.20
2018-08-30T05:30:39.180Z,98631.77
2018-08-30T05:32:51.407Z,98626.86
2018-08-30T05:35:03.639Z,98632.59
2018-08-30T05:37:15.849Z,98634.60
2018-08-30T05:39:28.042Z,98642.72
2018-08-30T05:41:40.254Z,98632.45
2018-08-30T05:43:52.471Z,98635.00
2018-08-30T05:46:04.649Z,98641.23
2018-08-30T05:48:16.863Z,98638.34
2018-08-30T05:50:29.056Z,98645.27
2018-08-30T05:52:41.260Z,98637.53
2018-08-30T05:54:53.452Z,98645.67
2018-08-30T05:57:05.648Z,98644.36
2018-08-30T05:59:17.870Z,98646.16
2018-08-30T06:01:30.117Z,98648.12
2018-08-30T06:03:42.341Z,98650.28
2018-08-30T06:05:54.523Z,98650.48
2018-08-30T06:08:06.794Z,98654.05
2018-08-30T06:10:18.965Z,98651.21
2018-08-30T06:12:31.238Z,98663.62
2018-08-30T06:14:43.439Z,98673.66
2018-08-30T06:16:55.666Z,98669.37
2018-08-30T06:19:08.002Z,98675.64
2018-08-30T06:21:20.192Z,98673.84
2018-08-30T06:23:32.371Z,98675.64
2018-08-30T06:25:44.602Z,98673.02
2018-08-30T06:27:56.816Z,98666.45
2018-08-30T06:30:09.010Z,98672.30
2018-08-30T06:32:21.322Z,98679.34
2018-08-30T06:34:33.516Z,98676.95
2018-08-30T06:36:45.946Z,98691.75
2018-08-30T06:38:58.136Z,98691.02
2018-08-30T06:41:10.383Z,98694.48
2018-08-30T06:43:22.574Z,98692.13
2018-08-30T06:45:34.878Z,98702.40
2018-08-30T06:47:46.999Z,98699.19
2018-08-30T06:49:59.201Z,98701.81
2018-08-30T06:52:11.402Z,98704.67
2018-08-30T06:54:23.585Z,98705.64
2018-08-30T06:56:35.767Z,98704.43
2018-08-30T06:58:48.011Z,98712.06
2018-08-30T07:01:00.175Z,98714.48
2018-08-30T07:03:12.362Z,98718.05
2018-08-30T07:05:24.614Z,98724.58
2018-08-30T07:07:36.814Z,98718.05
2018-08-30T07:09:49.091Z,98723.30
2018-08-30T07:12:01.315Z,98723.03
2018-08-30T07:14:13.531Z,98724.34
2018-08-30T07:16:25.726Z,98724.92
2018-08-30T07:18:37.998Z,98730.18
2018-08-30T07:20:50.178Z,98728.00
2018-08-30T07:23:02.561Z,98741.62
2018-08-30T07:25:14.763Z,98735.25
2018-08-30T07:27:26.943Z,98734.27
2018-08-30T07:29:39.156Z,98735.94
2018-08-30T07:31:51.350Z,98731.50
2018-08-30T07:34:03.601Z,98736.61
2018-08-30T07:36:15.787Z,98743.37
2018-08-30T07:38:28.019Z,98746.58
2018-08-30T07:40:40.265Z,98744.77
2018-08-30T07:42:52.459Z,98743.41
2018-08-30T07:45:04.727Z,98756.78
2018-08-30T07:47:16.924Z,98756.53
2018-08-30T07:49:29.097Z,98751.76
2018-08-30T07:51:41.328Z,98761.56
2018-08-30T07:53:53.462Z,98764.34
2018-08-30T07:56:05.975Z,98762.53
2018-08-30T07:58:18.250Z,98761.53
2018-08-30T08:00:30.569Z,98761.73
2018-08-30T08:02:42.843Z,98753.88
2018-08-30T08:04:55.090Z,98756.25
2018-08-30T08:07:07.337Z,98756.11
2018-08-30T08:09:19.555Z,98762.65
2018-08-30T08:11:31.760Z,98770.09
2018-08-30T08:13:43.954Z,98771.98
2018-08-30T08:15:56.230Z,98774.77
2018-08-30T08:18:08.518Z,98778.46
2018-08-30T08:20:20.706Z,98780.38
2018-08-30T08:22:32.963Z,98780.69
2018-08-30T08:24:45.273Z,98781.92
2018-08-30T08:26:57.467Z,98776.92
2018-08-30T08:29:09.670Z,98776.05
2018-08-30T08:31:21.915Z,98780.91
2018-08-30T08:33:34.183Z,98785.61
2018-08-30T08:35:46.413Z,98785.82
2018-08-30T08:37:58.623Z,98788.71
2018-08-30T08:40:10.954Z,98795.21
2018-08-30T08:42:23.139Z,98788.23
2018-08-30T08:44:35.381Z,98794.47
2018-08-30T08:46:47.610Z,98785.74
2018-08-30T08:48:59.867Z,98789.55
2018-08-30T08:51:12.167Z,98790.29
2018-08-30T08:53:24.386Z,98789.46
2018-08-30T08:55:36.636Z,98802.71
2018-08-30T08:57:48.838Z,98796.61
2018-08-30T09:00:01.083Z,98797.53
2018-08-30T09:02:13.298Z,98799.13
2018-08-30T09:04:25.530Z,98795.69
2018-08-30T09:06:37.803Z,98792.30
2018-08-30T09:08:49.994Z,98793.84
2018-08-30T09:11:02.231Z,98793.03
2018-08-30T09:13:14.439Z,98799.66
2018-08-30T09:15:26.722Z,98799.77
2018-08-30T09:17:38.943Z,98800.55
2018-08-30T09:19:51.203Z,98794.94
2018-08-30T09:22:03.470Z,98800.55
2018-08-30T09:24:15.671Z,98796.84
2018-08-30T09:26:27.915Z,98796.47
2018-08-30T09:28:40.147Z,98793.51
2018-08-30T09:30:52.357Z,98795.18
2018-08-30T09:33:05.071Z,98795.40
2018-08-30T09:35:17.249Z,98788.03
2018-08-30T09:37:29.525Z,98793.80
2018-08-30T09:39:42.531Z,98795.92
2018-08-30T09:41:54.753Z,98794.40
2018-08-30T09:44:07.075Z,98800.20
2018-08-30T09:46:19.262Z,98803.86
2018-08-30T09:48:31.463Z,98799.55
2018-08-30T09:50:43.714Z,98803.95
2018-08-30T09:52:55.914Z,98803.72
2018-08-30T09:55:08.155Z,98804.16
2018-08-30T09:57:20.691Z,98800.09
2018-08-30T09:59:32.636Z,98800.81
2018-08-30T10:01:50.077Z,98805.97
2018-08-30T10:04:02.352Z,98813.61
2018-08-30T10:06:14.584Z,98807.09
2018-08-30T10:08:26.860Z,98804.84
2018-08-30T10:10:39.067Z,98808.88
2018-08-30T10:12:51.258Z,98806.39
2018-08-30T10:15:03.543Z,98811.28
2018-08-30T10:17:15.788Z,98809.11
2018-08-30T10:19:27.998Z,98807.33
2018-08-30T10:21:40.315Z,98799.73
2018-08-30T10:23:52.590Z,98798.34
2018-08-30T10:26:05.295Z,98802.36
2018-08-30T10:28:17.521Z,98803.57
2018-08-30T10:30:29.742Z,98803.02
2018-08-30T10:32:41.987Z,98790.05
2018-08-30T10:34:54.235Z,98792.06
2018-08-30T10:37:06.577Z,98794.82
2018-08-30T10:39:18.671Z,98792.73
2018-08-30T10:41:30.911Z,98795.14
2018-08-30T10:43:43.111Z,98795.39
2018-08-30T10:45:55.315Z,98793.02
2018-08-30T10:48:07.543Z,98798.72
2018-08-30T10:50:21.924Z,98795.30
2018-08-30T10:52:34.155Z,98796.67
2018-08-30T10:54:46.424Z,98793.04
2018-08-30T10:56:58.599Z,98790.52
2018-08-30T10:59:10.796Z,98786.83
2018-08-30T11:01:23.065Z,98788.27
2018-08-30T11:03:35.388Z,98794.03
2018-08-30T11:05:47.677Z,98790.14
2018-08-30T11:08:00.098Z,98787.77
2018-08-30T11:10:12.408Z,98788.82
2018-08-30T11:12:24.635Z,98788.92
2018-08-30T11:14:36.842Z,98793.31
2018-08-30T11:16:49.074Z,98790.27
2018-08-30T11:19:01.249Z,98796.05
2018-08-30T11:21:13.500Z,98802.31
2018-08-30T11:23:25.807Z,98804.56
2018-08-30T11:25:38.010Z,98799.80
2018-08-30T11:27:50.265Z,98803.86
2018-08-30T11:30:02.498Z,98797.77
2018-08-30T11:32:14.850Z,98800.50
2018-08-30T11:34:27.086Z,98796.16
2018-08-30T11:36:39.302Z,98797.77
2018-08-30T11:38:51.502Z,98794.47
2018-08-30T11:41:03.695Z,98791.20
2018-08-30T11:43:16.013Z,98792.66
2018-08-30T11:45:28.175Z,98792.33
2018-08-30T11:47:40.403Z,98797.81
2018-08-30T11:49:52.693Z,98798.45
2018-08-30T11:52:05.076Z,98798.45
2018-08-30T11:54:17.264Z,98799.41
2018-08-30T11:56:29.423Z,98801.81
2018-08-30T11:58:41.695Z,98796.89
2018-08-30T12:00:53.945Z,98789.78
2018-08-30T12:03:06.173Z,98794.90
2018-08-30T12:05:18.486Z,98792.66
2018-08-30T12:07:30.717Z,98793.62
2018-08-30T12:09:42.906Z,98794.34
2018-08-30T12:11:55.183Z,98788.53
2018-08-30T12:14:07.402Z,98790.38
2018-08-30T12:16:19.702Z,98792.28
2018-08-30T12:18:31.945Z,98800.25
2018-08-30T12:20:44.279Z,98798.59
2018-08-30T12:22:56.406Z,98792.82
2018-08-30T12:25:08.646Z,98793.95
2018-08-30T12:27:20.930Z,98792.46
2018-08-30T12:29:33.173Z,98792.06
2018-08-30T12:31:45.545Z,98794.05
2018-08-30T12:33:57.861Z,98794.80
2018-08-30T12:36:10.075Z,98785.66
2018-08-30T12:38:22.313Z,98773.99
2018-08-30T12:40:34.560Z,98784.14
2018-08-30T12:42:46.712Z,98782.21
2018-08-30T12:44:59.287Z,98778.95
2018-08-30T12:47:11.502Z,98771.66
2018-08-30T12:49:23.798Z,98770.02
2018-08-30T12:51:36.184Z,98771.31
2018-08-30T12:53:48.318Z,98769.41
2018-08-30T12:56:00.566Z,98761.83
2018-08-30T12:58:12.811Z,98765.84
2018-08-30T13:00:25.100Z,98767.21
2018-08-30T13:02:37.330Z,98766.78
2018-08-30T13:04:49.823Z,98770.07
2018-08-30T13:07:01.856Z,98766.23
2018-08-30T13:09:15.565Z,98758.98
2018-08-30T13:11:27.610Z,98761.20
2018-08-30T13:13:39.945Z,98760.39
2018-08-30T13:15:52.053Z,98767.43
2018-08-30T13:18:04.192Z,98759.02
2018-08-30T13:20:16.445Z,98754.09
2018-08-30T13:22:28.819Z,98750.45
2018-08-30T13:24:41.118Z,98753.81
2018-08-30T13:26:53.273Z,98745.66
2018-08-30T13:29:05.587Z,98752.97
2018-08-30T13:31:17.778Z,98756.42
2018-08-30T13:33:29.959Z,98760.25
2018-08-30T13:35:42.385Z,98753.22
2018-08-30T13:37:54.711Z,98754.41
2018-08-30T13:40:06.805Z,98745.34
2018-08-30T13:42:19.196Z,98754.16
2018-08-30T13:44:31.291Z,98743.94
2018-08-30T13:46:43.580Z,98748.90
2018-08-30T13:48:55.622Z,98758.03
2018-08-30T13:51:07.870Z,98757.66
2018-08-30T13:53:20.352Z,98755.81
2018-08-30T13:55:32.354Z,98751.19
2018-08-30T13:57:44.925Z,98754.97
2018-08-30T13:59:57.211Z,98749.34
2018-08-30T14:02:09.024Z,98753.43
2018-08-30T14:04:21.381Z,98748.44
2018-08-30T14:06:33.492Z,98751.61
2018-08-30T14:08:45.870Z,98750.64
2018-08-30T14:10:58.039Z,98747.19
2018-08-30T14:13:10.300Z,98748.52
2018-08-30T14:15:22.783Z,98748.82
2018-08-30T14:17:34.425Z,98742.86
2018-08-30T14:19:46.741Z,98742.72
2018-08-30T14:21:59.007Z,98745.66
2018-08-30T14:24:11.402Z,98741.38
2018-08-30T14:26:23.499Z,98742.03
2018-08-30T14:28:35.633Z,98737.42
2018-08-30T14:30:47.822Z,98737.75
2018-08-30T14:33:00.037Z,98742.05
2018-08-30T14:35:12.277Z,98736.08
2018-08-30T14:37:24.525Z,98741.16
2018-08-30T14:39:36.736Z,98738.75
2018-08-30T14:41:49.081Z,98742.80
2018-08-30T14:44:01.208Z,98742.13
2018-08-30T14:46:13.418Z,98741.47
2018-08-30T14:48:25.630Z,98739.31
2018-08-30T14:50:37.856Z,98740.28
2018-08-30T14:52:50.144Z,98743.18
2018-08-30T14:55:02.307Z,98746.33
2018-08-30T14:57:14.589Z,98740.73
2018-08-30T14:59:26.804Z,98745.83
2018-08-30T15:01:39.017Z,98749.72
2018-08-30T15:03:51.226Z,98745.77
2018-08-30T15:06:03.553Z,98752.56
2018-08-30T15:08:15.695Z,98751.65
2018-08-30T15:10:27.939Z,98753.61
2018-08-30T15:12:40.155Z,98751.91
2018-08-30T15:14:52.361Z,98748.92
2018-08-30T15:17:04.646Z,98755.38
2018-08-30T15:19:16.840Z,98758.02
2018-08-30T15:21:29.113Z,98756.05
2018-08-30T15:23:41.368Z,98752.27
2018-08-30T15:25:53.618Z,98761.36
2018-08-30T15:28:06.109Z,98757.20
2018-08-30T15:30:18.380Z,98758.80
2018-08-30T15:32:30.512Z,98754.14
2018-08-30T15:34:42.750Z,98757.95
2018-08-30T15:36:54.924Z,98763.23
2018-08-30T15:39:08.014Z,98761.42
2018-08-30T15:41:20.257Z,98758.05
2018-08-30T15:43:32.572Z,98759.98
2018-08-30T15:45:44.700Z,98754.16
2018-08-30T15:47:56.951Z,98763.89
2018-08-30T15:50:09.178Z,98769.70
2018-08-30T15:52:21.388Z,98765.60
2018-08-30T15:54:33.642Z,98762.66
2018-08-30T15:56:45.853Z,98762.81
2018-08-30T15:58:58.108Z,98757.86
2018-08-30T16:01:10.394Z,98763.78
2018-08-30T16:03:22.598Z,98758.66
2018-08-30T16:05:34.851Z,98764.58
2018-08-30T16:07:47.106Z,98757.73
2018-08-30T16:09:59.435Z,98763.95
2018-08-30T16:12:11.551Z,98761.41
2018-08-30T16:14:23.796Z,98761.67
2018-08-30T16:16:36.006Z,98762.16
2018-08-30T16:18:48.248Z,98762.46
2018-08-30T16:21:00.735Z,98763.18
2018-08-30T16:23:25.576Z,98762.98
2018-08-30T16:25:37.796Z,98759.97
2018-08-30T16:27:50.059Z,98764.59
2018-08-30T16:30:02.327Z,98766.53
2018-08-30T16:32:14.598Z,98761.88
2018-08-30T16:34:26.854Z,98759.44
2018-08-30T16:36:39.095Z,98762.58
2018-08-30T16:38:51.302Z,98766.37
2018-08-30T16:41:03.579Z,98763.78
2018-08-30T16:43:15.842Z,98772.41
2018-08-30T16:45:28.110Z,98771.95
2018-08-30T16:47:40.378Z,98768.16
2018-08-30T16:49:52.594Z,98768.06
2018-08-30T16:52:04.854Z,98772.34
2018-08-30T16:54:17.055Z,98781.91
2018-08-30T16:56:29.268Z,98776.20
2018-08-30T16:58:41.506Z,98777.20
2018-08-30T17:00:53.811Z,98781.68
2018-08-30T17:03:06.411Z,98788.28
2018-08-30T17:05:18.657Z,98785.69
2018-08-30T17:07:30.970Z,98782.89
2018-08-30T17:09:43.204Z,98789.64
2018-08-30T17:11:55.531Z,98786.17
2018-08-30T17:14:07.805Z,98790.34
2018-08-30T17:16:20.134Z,98783.90
2018-08-30T17:18:32.422Z,98786.28
2018-08-30T17:20:49.499Z,98786.56
2018-08-30T17:23:01.723Z,98788.52
2018-08-30T17:25:14.023Z,98783.86
2018-08-30T17:27:26.228Z,98787.13
2018-08-30T17:29:38.472Z,98792.04
2018-08-30T17:31:50.798Z,98786.84
2018-08-30T17:34:03.061Z,98785.58
2018-08-30T17:36:15.314Z,98785.46
2018-08-30T17:38:27.573Z,98782.11
2018-08-30T17:40:39.845Z,98779.89
2018-08-30T17:42:52.128Z,98783.41
2018-08-30T17:45:04.581Z,98784.31
2018-08-30T17:47:16.855Z,98783.61
2018-08-30T17:49:29.107Z,98787.56
2018-08-30T17:51:41.446Z,98789.86
2018-08-30T17:53:53.639Z,98792.77
2018-08-30T17:56:06.076Z,98790.47
2018-08-30T17:58:18.314Z,98795.28
2018-08-30T18:00:30.583Z,98801.50
2018-08-30T18:02:43.954Z,98799.02
2018-08-30T18:04:56.243Z,98798.78
2018-08-30T18:07:08.615Z,98797.81
2018-08-30T18:09:20.794Z,98799.61
2018-08-30T18:11:33.095Z,98804.55
2018-08-30T18:13:45.305Z,98801.50
2018-08-30T18:15:57.581Z,98805.91
2018-08-30T18:18:09.906Z,98808.69
2018-08-30T18:20:22.160Z,98811.47
2018-08-30T18:22:34.410Z,98809.52
2018-08-30T18:24:46.662Z,98811.59
2018-08-30T18:26:58.951Z,98810.27
2018-08-30T18:29:11.413Z,98815.80
2018-08-30T18:31:23.698Z,98817.39
2018-08-30T18:33:35.874Z,98815.02
2018-08-30T18:35:48.123Z,98814.67
2018-08-30T18:38:00.416Z,98818.89
2018-08-30T18:40:12.689Z,98815.42
2018-08-30T18:42:25.012Z,98820.13
2018-08-30T18:44:37.183Z,98823.84
2018-08-30T18:46:49.455Z,98823.16
2018-08-30T18:49:01.727Z,98827.23
2018-08-30T18:51:13.966Z,98827.86
2018-08-30T18:53:26.200Z,98832.05
2018-08-30T18:55:38.429Z,98836.14
2018-08-30T18:57:50.629Z,98842.72
2018-08-30T19:00:02.939Z,98835.91
2018-08-30T19:02:15.211Z,98846.79
2018-08-30T19:04:27.565Z,98840.20
2018-08-30T19:06:39.811Z,98842.50
2018-08-30T19:08:52.357Z,98841.18
2018-08-30T19:11:04.974Z,98845.05
2018-08-30T19:13:17.451Z,98841.35
2018-08-30T19:15:35.324Z,98849.36
2018-08-30T19:17:53.277Z,98846.88
2018-08-30T19:20:05.755Z,98847.84
2018-08-30T19:22:18.354Z,98853.12
2018-08-30T19:24:36.236Z,98849.17
2018-08-30T19:26:48.792Z,98853.60
2018-08-30T19:29:01.083Z,98850.59
2018-08-30T19:31:13.572Z,98854.06
2018-08-30T19:33:25.907Z,98851.80
2018-08-30T19:35:43.854Z,98855.17
2018-08-30T19:37:56.244Z,98845.73
2018-08-30T19:40:13.128Z,98848.50
2018-08-30T19:42:25.483Z,98849.45
2018-08-30T19:44:37.744Z,98851.88
2018-08-30T19:46:50.018Z,98852.97
2018-08-30T19:49:02.437Z,98850.09
2018-08-30T19:51:14.684Z,98847.72
2018-08-30T19:53:26.931Z,98852.30
2018-08-30T19:55:39.201Z,98855.09
2018-08-30T19:57:51.450Z,98856.66
2018-08-30T20:00:03.828Z,98857.05
2018-08-30T20:02:16.114Z,98860.77
2018-08-30T20:04:28.403Z,98864.83
2018-08-30T20:06:40.655Z,98864.73
2018-08-30T20:08:52.903Z,98872.87
2018-08-30T20:11:05.354Z,98865.84
2018-08-30T20:13:17.747Z,98863.80
2018-08-30T20:15:29.921Z,98860.00
2018-08-30T20:17:42.157Z,98867.31
2018-08-30T20:19:54.411Z,98858.45
2018-08-30T20:22:08.804Z,98864.30
2018-08-30T20:24:21.010Z,98861.09
2018-08-30T20:26:33.273Z,98870.20
2018-08-30T20:28:45.483Z,98866.84
2018-08-30T20:30:57.745Z,98872.02
2018-08-30T20:33:09.991Z,98870.11
2018-08-30T20:35:22.260Z,98868.80
2018-08-30T20:37:35.353Z,98868.55
2018-08-30T20:39:47.683Z,98870.00
2018-08-30T20:41:59.903Z,98865.23
2018-08-30T20:44:12.106Z,98864.74
2018-08-30T20:46:24.340Z,98870.11
2018-08-30T20:48:36.642Z,98865.33
2018-08-30T20:50:48.852Z,98863.53
2018-08-30T20:53:01.059Z,98864.64
2018-08-30T20:55:13.283Z,98866.79
2018-08-30T20:57:25.983Z,98864.13
2018-08-30T20:59:38.255Z,98872.16
2018-08-30T21:01:50.468Z,98862.23
2018-08-30T21:04:02.695Z,98866.42
2018-08-30T21:06:14.934Z,98864.66
2018-08-30T21:08:27.208Z,98863.00
2018-08-30T21:10:39.510Z,98858.92
2018-08-30T21:12:51.722Z,98859.78
2018-08-30T21:15:03.964Z,98862.75
2018-08-30T21:17:16.180Z,98852.62
2018-08-30T21:19:28.430Z,98857.16
2018-08-30T21:21:40.616Z,98851.06
2018-08-30T21:23:53.074Z,98847.95
2018-08-30T21:26:05.591Z,98847.12
2018-08-30T21:28:17.806Z,98853.83
2018-08-30T21:30:30.046Z,98852.03
2018-08-30T21:32:42.306Z,98845.49
2018-08-30T21:34:54.511Z,98843.10
2018-08-30T21:37:06.743Z,98847.29
2018-08-30T21:39:18.931Z,98848.95
2018-08-30T21:41:31.164Z,98847.19
2018-08-30T21:43:43.378Z,98850.27
2018-08-30T21:45:55.697Z,98849.67
2018-08-30T21:48:08.006Z,98855.52
2018-08-30T21:50:20.294Z,98852.78
2018-08-30T21:52:32.466Z,98856.38
2018-08-30T21:54:44.727Z,98856.38
2018-08-30T21:56:56.922Z,98851.36
2018-08-30T21:59:09.134Z,98852.67
2018-08-30T22:01:21.403Z,98850.87
2018-08-30T22:03:33.614Z,98848.15
2018-08-30T22:05:45.871Z,98850.87
2018-08-30T22:07:58.130Z,98851.36
2018-08-30T22:10:10.323Z,98853.50
2018-08-30T22:12:22.578Z,98850.40
2018-08-30T22:14:34.771Z,98848.15
2018-08-30T22:16:47.023Z,98848.15
2018-08-30T22:18:59.255Z,98850.78
2018-08-30T22:21:11.415Z,98849.46
2018-08-30T22:23:23.655Z,98847.31
2018-08-30T22:25:35.861Z,98845.14
2018-08-30T22:27:48.082Z,98842.65
2018-08-30T22:30:00.291Z,98843.95
2018-08-30T22:32:12.522Z,98844.33
2018-08-30T22:34:24.713Z,98844.56
2018-08-30T22:36:36.905Z,98843.84
2018-08-30T22:38:49.121Z,98848.27
2018-08-30T22:41:01.426Z,98843.73
2018-08-30T22:43:13.652Z,98841.48
2018-08-30T22:45:25.816Z,98837.89
2018-08-30T22:47:38.027Z,98838.72
2018-08-30T22:49:50.202Z,98839.10
2018-08-30T22:52:02.403Z,98835.02
2018-08-30T22:54:14.600Z,98842.08
2018-08-30T22:56:26.785Z,98834.78
2018-08-30T22:58:39.011Z,98836.23
2018-08-30T23:00:51.166Z,98840.54
2018-08-30T23:03:03.410Z,98841.61
2018-08-30T23:05:15.623Z,98839.80
2018-08-30T23:07:27.814Z,98837.89
2018-08-30T23:09:40.003Z,98839.80
2018-08-30T23:11:52.212Z,98840.90
2018-08-30T23:14:04.474Z,98840.41
2018-08-30T23:16:16.654Z,98842.33
2018-08-30T23:18:28.840Z,98836.11
2018-08-30T23:20:41.055Z,98839.95
2018-08-30T23:22:53.257Z,98840.30
2018-08-30T23:25:05.632Z,98837.77
2018-08-30T23:27:17.808Z,98835.28
2018-08-30T23:29:30.030Z,98839.08
2018-08-30T23:31:42.217Z,98836.22
2018-08-30T23:33:54.446Z,98838.36
2018-08-30T23:36:06.675Z,98840.78
2018-08-30T23:38:18.862Z,98839.08
2018-08-30T23:40:31.070Z,98836.00
2018-08-30T23:42:43.215Z,98833.00
2018-08-30T23:44:55.401Z,98834.31
2018-08-30T23:47:07.612Z,98830.50
2018-08-30T23:49:19.844Z,98832.05
2018-08-30T23:51:32.093Z,98834.57
2018-08-30T23:53:44.267Z,98837.19
2018-08-30T23:55:56.448Z,98827.59
2018-08-30T23:58:20.053Z,98832.84
